Terminal Aerodrome Forecast
Issued by NWS

Home | Current Version | Previous Version | Text Only | Print | Product List | Glossary On
Versions: 1 2 3 4 5 6 7 8 9 10 11 12 13 14 15 16 17 18 19 20 21 22 23 24 25 26 27 28 29 30 31 32 33 34 35 36 37
000
FTUS46 KPQR 251720
TAFONP
TAF
KONP 251720Z 2518/2618 32007KT P6SM SCT025 BKN040
     FM252000 33009G16KT P6SM SCT035 SCT050
     FM260500 35007KT P6SM BKN025
     FM260700 34005KT P6SM BKN015 OVC025=

USA.gov is the U.S. government's official web portal to all federal, state and local government web resources and services.